Bruk link Alternativ webside om du vil se statistikk,rapport,graf,analyse og mye mer.





Vårt webkamera mer informasjon My webcam


Kamera på Foreneset mer informasjon webcam on foreneset


Nedbørsradar  rain snow radar


Besøk vår andre værside:

Alternativ webside

iphone versjon

Nettbrett versjon

Foreneset
verstasjon



Ikke nødvendig med spesiell oppmerksomhet.    Det er ingen advarsler

Nære METAR rapporter

     
ENZV - Stavanger
oppdatert: 27-11-2021 14:20
For det meste skyet  
For det meste skyet  
   Vind: Nord 4.1 m/s
Vind: Nord 4.1 m/s
Temperatur: 3°C
Wind Chill: -1°C
Duggpunkt: -1°C
Fuktighet: 75%
Barometer: 1001 hPa
Skyer: For det meste skyet
Sikt: mer enn 10 km
Skydetaljer: Få Skyer 609.6 m,
For det meste skyet 1828.8 m
ENZV 271320Z 01008KT 9999 FEW020 BKN060 03/M01 Q1001 NOSIG
ENHD - Haugesund
oppdatert: 27-11-2021 14:20
For det meste skyet  
For det meste skyet  
   Vind: Øst 2.1 m/s
Vind: Øst 2.1 m/s
Temperatur: 1°C
Wind Chill: -1°C
Duggpunkt: 0°C
Fuktighet: 93%
Barometer: 1001 hPa
Skyer: For det meste skyet
Sikt: mer enn 10 km
Skydetaljer: Få Skyer 457.2 m,
For det meste skyet 1981.2 m
ENHD 271320Z 10004KT 9999 FEW015 BKN065 01/M00 Q1001
ENBR - Bergen
oppdatert: 27-11-2021 14:20
Delvis Skyet  
Delvis Skyet  
   Vind: NØ 1 m/s
Vind: NØ 1 m/s
Temperatur: 0°C
Duggpunkt: -2°C
Fuktighet: 87%
Barometer: 1002 hPa
Skyer: Delvis Skyet
Sikt: mer enn 10 km
Skydetaljer: Få Skyer 609.6 m,
Delvis Skyet 3657.6 m
ENBR 271320Z 04002KT 9999 FEW020CB SCT120 M00/M02 Q1002 NOSIG RMK WIND 1200FT 04003KT
ENCN - Kristiansand
oppdatert: 27-11-2021 14:20
Delvis Skyet  
Delvis Skyet  
   Vind: NNØ 7.2 m/s
Vind: NNØ 7.2 m/s
Temperatur: 0°C
Wind Chill: -6°C
Duggpunkt: -3°C
Fuktighet: 80%
Barometer: 1000 hPa
Skyer: Delvis Skyet
Sikt: mer enn 10 km
Skydetaljer: Delvis Skyet 609.6 m
ENCN 271320Z 02014KT 9999 SCT020 00/M03 Q1000
ENGM - Oslo
oppdatert: 27-11-2021 14:20
Nære Byger, For det meste skyet  
Nære Byger, For det meste skyet  
   Vind: Nord 3.1 m/s
Vind: Nord 3.1 m/s
Temperatur: -4°C
Wind Chill: -8°C
Duggpunkt: -6°C
Fuktighet: 86%
Barometer: 1004 hPa
Skyer: For det meste skyet
Sikt: mer enn 10 km
Skydetaljer: For det meste skyet 1005.8 m
ENGM 271320Z 01006KT 9999 VCSH BKN033 M04/M06 Q1004 NOSIG
ENVA - Trondheim
oppdatert: 27-11-2021 14:20
Klart  
Klart  
   Vind: SØ 3.6 m/s
Vind: SØ 3.6 m/s
Temperatur: -10°C
Wind Chill: -16°C
Duggpunkt: -12°C
Fuktighet: 85%
Barometer: 1005 hPa
Sikt: mer enn 10 km
Skydetaljer: Klart
ENVA 271320Z 14007KT CAVOK M10/M12 Q1005 NOSIG RMK WIND 670FT 09008KT
    

Script utviklet av  Saratoga-weather.org Tilrettelagt for malen av  Weerstation Leuven

Du finner vår vær info også på:

UK Metoffice

European Weather Network

WeatherCloud

Weather Underground

Utstyr vi bruker:

Værstsjon
Davis VP2

Værprogram
Weather Display

Davis VP2

Weather Display